< Typhoon 200303 2003 Season Typhoon 200305 >
Typhoon 200304 (LINFA)
General InformationTrack Information on Google MapsDetailed Wind InformationList of All Images || NewsDisaster Info.WeblogResourceGoogle EarthGE AnimationAtom FeedGeoJSON
Detalied Best Track (Time Zone = UTC)
Year Month Day Hour Lat. Long. Pressure (hPa) Wind (kt) Class Image Chart
2003 5 25 06 16.5 118.5 1000 0 2 Image Chart
2003 5 25 12 16.4 118.3 1000 0 2 Image Chart
2003 5 25 18 16.1 118.0 1000 0 2 Image Chart
2003 5 26 00 15.8 118.4 994 35 3 Image Chart
2003 5 26 06 16.0 118.7 990 45 3 Image Chart
2003 5 26 12 16.0 119.2 990 45 3 Image Chart
2003 5 26 18 16.1 119.2 990 45 3 Image Chart
2003 5 27 00 16.1 119.9 985 50 4 Image Chart
2003 5 27 06 16.2 121.3 992 35 3 Image Chart
2003 5 27 12 16.8 121.9 992 35 3 Image Chart
2003 5 27 18 17.5 122.6 992 40 3 Image Chart
2003 5 28 00 18.7 124.0 992 40 3 Image Chart
2003 5 28 06 19.8 124.6 992 40 3 Image Chart
2003 5 28 12 20.3 125.0 992 40 3 Image Chart
2003 5 28 18 20.9 125.3 992 40 3 Image Chart
2003 5 29 00 21.9 125.8 992 40 3 Image Chart
2003 5 29 06 22.3 126.9 990 40 3 Image Chart
2003 5 29 12 22.8 128.1 985 45 3 Image Chart
2003 5 29 15 23.9 128.8 985 45 3 Image Chart
2003 5 29 18 24.3 129.1 980 55 4 Image Chart
2003 5 29 21 25.0 129.6 980 55 4 Image Chart
2003 5 30 00 25.7 130.3 980 55 4 Image Chart
2003 5 30 03 26.5 130.5 980 55 4 Image Chart
2003 5 30 06 27.6 130.8 980 50 4 Image Chart
2003 5 30 09 28.8 131.2 980 50 4 Image Chart
2003 5 30 12 30.0 131.4 980 50 4 Image Chart
2003 5 30 15 31.2 131.8 980 50 4 Image Chart
2003 5 30 18 32.3 132.2 980 50 4 Image Chart
2003 5 30 21 33.2 132.3 985 45 3 Image Chart
2003 5 31 00 33.9 133.2 988 0 6 Image Chart
2003 5 31 06 35.0 134.4 988 0 6 Image Chart
2003 5 31 12 36.1 135.1 992 0 6 Image Chart
2003 5 31 18 37.7 137.7 994 0 6 Image Chart
2003 6 1 00 39.6 140.5 994 0 6 Image Chart
2003 6 1 06 40.9 142.5 992 0 6 Image Chart
2003 6 1 12 42.8 144.1 992 0 6 Image Chart
2003 6 1 18 44.2 146.8 988 0 6 Image Chart
2003 6 2 00 45.1 148.3 988 0 6 Image Chart
2003 6 2 06 47.3 149.5 986 0 6 Image Chart
2003 6 2 12 49.0 150.4 984 0 6 Image Chart
2003 6 2 18 50.0 150.7 982 0 6 Image Chart
2003 6 3 00 50.9 152.0 982 0 6 Image Chart
2003 6 3 06 52.8 152.1 984 0 6 Image Chart
2003 6 3 12 54.1 152.1 986 0 6 Image Chart
2003 6 3 18 55.0 152.2 986 0 6 Image Chart
2003 6 4 00 55.1 152.9 988 0 6 Image Chart
2003 6 4 06 55.9 153.6 990 0 6 Image Chart
Japan Meteorological Agency Best Track Data | Correction Date : 2004-02-17
< Typhoon 200303 2003 Season Typhoon 200305 >

Help